Time;durP1;ratioP1;P1;durP2;ratioP2;P2;SDS_P1;SDS_P2;PMS_P1;PMS_P2;Temp;Humidity;BMP_temperature;BMP_pressure;BME280_temperature;BME280_humidity;BME280_pressure;Samples;Min_cycle;Max_cycle;Signal;HPM_P1;HPM_P2
2021/12/29 00:00:45;;;;;;;10.23;9.25;;;;;;;;;;4979903;28;20387;-69
2021/12/29 00:03:10;;;;;;;13.85;10.60;;;;;;;;;;4995582;28;20022;-73
2021/12/29 00:05:36;;;;;;;14.60;10.55;;;;;;;;;;4982957;28;20121;-70
2021/12/29 00:08:03;;;;;;;11.10;10.00;;;;;;;;;;4984343;28;20069;-70
2021/12/29 00:10:29;;;;;;;13.50;9.95;;;;;;;;;;4986998;28;20083;-69
2021/12/29 00:12:56;;;;;;;11.55;9.68;;;;;;;;;;4988300;28;20030;-73
2021/12/29 00:15:25;;;;;;;13.93;10.00;;;;;;;;;;4990616;28;20438;-70
2021/12/29 00:17:51;;;;;;;16.55;10.48;;;;;;;;;;4988971;28;20125;-69
2021/12/29 00:20:19;;;;;;;12.00;9.07;;;;;;;;;;4991307;28;20060;-70
2021/12/29 00:22:45;;;;;;;12.45;9.68;;;;;;;;;;4991689;28;20042;-69
2021/12/29 00:25:12;;;;;;;12.43;9.50;;;;;;;;;;4990731;28;20508;-69
2021/12/29 00:27:38;;;;;;;11.88;9.23;;;;;;;;;;4993628;28;20519;-69
2021/12/29 00:30:06;;;;;;;11.18;9.25;;;;;;;;;;4989159;28;20033;-70
2021/12/29 00:32:58;;;;;;;17.67;9.90;;;;;;;;;;4977557;28;20116;-70
2021/12/29 00:35:45;;;;;;;10.85;9.07;;;;;;;;;;4986678;28;20270;-70
2021/12/29 00:38:29;;;;;;;9.82;8.82;;;;;;;;;;4989385;28;20050;-69
2021/12/29 00:41:15;;;;;;;11.13;9.95;;;;;;;;;;4990662;28;20041;-69
2021/12/29 00:43:59;;;;;;;11.80;9.55;;;;;;;;;;4989559;28;20490;-69
2021/12/29 00:46:53;;;;;;;14.10;9.48;;;;;;;;;;4990429;28;20301;-69
2021/12/29 00:49:21;;;;;;;10.35;9.32;;;;;;;;;;4991213;28;20500;-70
2021/12/29 00:51:48;;;;;;;16.50;10.10;;;;;;;;;;4988926;28;20128;-70
2021/12/29 00:54:14;;;;;;;10.80;9.70;;;;;;;;;;4993274;28;20045;-70
2021/12/29 00:56:40;;;;;;;12.75;9.55;;;;;;;;;;4992433;28;20034;-70
2021/12/29 00:59:06;;;;;;;11.52;9.55;;;;;;;;;;4990187;28;20096;-70
2021/12/29 01:01:32;;;;;;;9.38;8.68;;;;;;;;;;4988998;28;20070;-70
2021/12/29 01:03:58;;;;;;;11.07;9.40;;;;;;;;;;4991359;28;20029;-70
2021/12/29 01:06:24;;;;;;;9.88;8.88;;;;;;;;;;4988986;28;20034;-70
2021/12/29 01:08:49;;;;;;;13.57;8.98;;;;;;;;;;4989093;28;20054;-70
2021/12/29 01:11:16;;;;;;;10.32;8.75;;;;;;;;;;4989267;28;20540;-70
2021/12/29 01:13:45;;;;;;;15.57;9.10;;;;;;;;;;4984693;28;20436;-70
2021/12/29 01:18:55;;;;;;;11.00;9.23;;;;;;;;;;4994079;28;20508;-70
2021/12/29 01:21:21;;;;;;;9.50;8.60;;;;;;;;;;4986188;28;20026;-70
2021/12/29 01:23:47;;;;;;;10.20;9.20;;;;;;;;;;4988421;28;20030;-70
2021/12/29 01:26:12;;;;;;;10.35;9.20;;;;;;;;;;4987819;28;20033;-70
2021/12/29 01:28:38;;;;;;;10.18;8.95;;;;;;;;;;4994431;28;20571;-70
2021/12/29 01:31:03;;;;;;;9.20;8.40;;;;;;;;;;4992840;28;20076;-70
2021/12/29 01:33:29;;;;;;;9.95;8.73;;;;;;;;;;4981832;28;20043;-70
2021/12/29 01:35:54;;;;;;;12.63;8.35;;;;;;;;;;4987590;28;20512;-70
2021/12/29 01:38:20;;;;;;;10.00;9.10;;;;;;;;;;4997059;28;20042;-70
2021/12/29 01:40:48;;;;;;;9.73;8.85;;;;;;;;;;4984042;28;20401;-72
2021/12/29 01:43:16;;;;;;;9.55;8.63;;;;;;;;;;4989931;28;20085;-70
2021/12/29 01:45:42;;;;;;;9.77;8.45;;;;;;;;;;4989608;28;20038;-72
2021/12/29 01:48:08;;;;;;;10.00;9.10;;;;;;;;;;4996847;28;20481;-70
2021/12/29 01:50:35;;;;;;;9.95;8.90;;;;;;;;;;4987677;28;20437;-70
2021/12/29 01:53:07;;;;;;;10.88;9.52;;;;;;;;;;4989897;28;20077;-72
2021/12/29 01:55:35;;;;;;;10.05;9.00;;;;;;;;;;4988374;28;20386;-70
2021/12/29 01:58:01;;;;;;;9.80;8.90;;;;;;;;;;4989059;28;20046;-70
2021/12/29 02:00:29;;;;;;;12.13;8.90;;;;;;;;;;4988705;28;20026;-72
2021/12/29 02:02:54;;;;;;;9.43;8.48;;;;;;;;;;4984165;28;20057;-70
2021/12/29 02:05:20;;;;;;;10.25;9.35;;;;;;;;;;4987383;28;20054;-72
2021/12/29 02:07:46;;;;;;;10.50;9.52;;;;;;;;;;4988523;28;20065;-72
2021/12/29 02:10:14;;;;;;;10.40;9.30;;;;;;;;;;4987131;28;20038;-72
2021/12/29 02:12:41;;;;;;;10.03;9.20;;;;;;;;;;4992986;28;20036;-72
2021/12/29 02:15:08;;;;;;;10.32;9.32;;;;;;;;;;4986237;28;20092;-72
2021/12/29 02:17:34;;;;;;;10.65;9.27;;;;;;;;;;4986855;28;20361;-70
2021/12/29 02:20:02;;;;;;;10.23;9.32;;;;;;;;;;4985199;28;20057;-70
2021/12/29 02:25:06;;;;;;;11.63;9.43;;;;;;;;;;4989290;28;20034;-70
2021/12/29 02:27:34;;;;;;;10.23;9.38;;;;;;;;;;4991876;28;20042;-70
2021/12/29 02:30:01;;;;;;;9.57;8.70;;;;;;;;;;4990381;28;20053;-70
2021/12/29 02:32:26;;;;;;;10.85;9.80;;;;;;;;;;4994842;28;20046;-70
2021/12/29 02:34:52;;;;;;;10.20;9.30;;;;;;;;;;4981759;28;20050;-70
2021/12/29 02:37:20;;;;;;;10.02;8.98;;;;;;;;;;4987749;28;20619;-70
2021/12/29 02:39:48;;;;;;;10.55;8.90;;;;;;;;;;4990120;28;20408;-70
2021/12/29 02:42:15;;;;;;;10.57;9.43;;;;;;;;;;4994230;28;20117;-73
2021/12/29 02:44:42;;;;;;;9.77;8.77;;;;;;;;;;4985035;28;20651;-70
2021/12/29 02:47:09;;;;;;;9.50;8.90;;;;;;;;;;4984062;28;20034;-71
2021/12/29 02:49:35;;;;;;;10.70;9.50;;;;;;;;;;4989916;28;20652;-71
2021/12/29 02:52:01;;;;;;;9.07;8.43;;;;;;;;;;4988292;28;20048;-71
2021/12/29 02:54:26;;;;;;;10.05;9.15;;;;;;;;;;4985255;28;20470;-70
2021/12/29 02:56:56;;;;;;;9.75;8.90;;;;;;;;;;4993126;28;20042;-70
2021/12/29 02:59:22;;;;;;;;;;;;;;;;;;4988948;28;20038;-70
2021/12/29 03:01:48;;;;;;;9.82;9.00;;;;;;;;;;4986419;28;19913;-70
2021/12/29 03:04:14;;;;;;;9.50;8.77;;;;;;;;;;4991818;28;20389;-73
2021/12/29 03:06:40;;;;;;;9.45;8.63;;;;;;;;;;4992732;28;20050;-71
2021/12/29 03:09:09;;;;;;;9.68;8.90;;;;;;;;;;4988548;28;20121;-71
2021/12/29 03:11:36;;;;;;;9.38;8.63;;;;;;;;;;4986170;28;20037;-71
2021/12/29 03:14:03;;;;;;;9.77;9.05;;;;;;;;;;4992724;28;20108;-71
2021/12/29 03:16:31;;;;;;;8.93;8.43;;;;;;;;;;4985892;28;20049;-70
2021/12/29 03:18:57;;;;;;;10.50;9.40;;;;;;;;;;4986164;28;20410;-71
2021/12/29 03:21:23;;;;;;;9.38;8.80;;;;;;;;;;4985257;28;20038;-70
2021/12/29 03:23:49;;;;;;;9.40;8.70;;;;;;;;;;4985764;28;20249;-71
2021/12/29 03:26:15;;;;;;;8.95;8.45;;;;;;;;;;4978008;28;20054;-71
2021/12/29 03:28:43;;;;;;;9.80;9.10;;;;;;;;;;4987050;28;20039;-71
2021/12/29 03:31:14;;;;;;;9.85;9.00;;;;;;;;;;4986998;28;20030;-71
2021/12/29 03:33:42;;;;;;;9.90;9.15;;;;;;;;;;4986425;28;20038;-71
2021/12/29 03:36:09;;;;;;;9.55;8.85;;;;;;;;;;4982469;28;20039;-71
2021/12/29 03:38:37;;;;;;;9.48;8.68;;;;;;;;;;4995050;28;20105;-70
2021/12/29 03:41:06;;;;;;;9.17;8.47;;;;;;;;;;4987991;28;20562;-71
2021/12/29 03:43:33;;;;;;;9.43;8.82;;;;;;;;;;4982046;28;20126;-71
2021/12/29 03:46:02;;;;;;;9.38;8.68;;;;;;;;;;4985818;28;20034;-71
2021/12/29 03:48:28;;;;;;;9.30;8.70;;;;;;;;;;4986508;28;20046;-71
2021/12/29 03:50:55;;;;;;;9.38;8.77;;;;;;;;;;4987130;28;20038;-71
2021/12/29 03:53:21;;;;;;;10.05;9.13;;;;;;;;;;4984881;28;20054;-71
2021/12/29 03:55:50;;;;;;;9.75;8.90;;;;;;;;;;4989888;28;20189;-71
2021/12/29 03:58:16;;;;;;;9.27;8.55;;;;;;;;;;4987011;28;20453;-71
2021/12/29 04:00:42;;;;;;;9.68;9.05;;;;;;;;;;4983172;28;20576;-71
2021/12/29 04:03:08;;;;;;;9.27;8.65;;;;;;;;;;4990695;28;20121;-71
2021/12/29 04:05:34;;;;;;;9.73;9.02;;;;;;;;;;4985313;28;20030;-71
2021/12/29 04:08:02;;;;;;;10.13;9.23;;;;;;;;;;4987248;28;20032;-71
2021/12/29 04:10:28;;;;;;;10.45;9.45;;;;;;;;;;4982907;28;20038;-71
2021/12/29 04:12:53;;;;;;;10.70;9.60;;;;;;;;;;4994088;28;20053;-72
2021/12/29 04:15:20;;;;;;;10.35;9.55;;;;;;;;;;4988449;28;20390;-71
2021/12/29 04:17:46;;;;;;;9.65;8.85;;;;;;;;;;4987478;28;20392;-71
2021/12/29 04:23:07;;;;;;;10.80;9.85;;;;;;;;;;4992562;28;20058;-73
2021/12/29 04:25:36;;;;;;;11.38;10.35;;;;;;;;;;4986864;28;20046;-72
2021/12/29 04:28:07;;;;;;;10.27;9.45;;;;;;;;;;4987728;28;20034;-71
2021/12/29 04:30:33;;;;;;;10.93;10.13;;;;;;;;;;4985311;28;20049;-71
2021/12/29 04:32:59;;;;;;;10.80;9.70;;;;;;;;;;4990126;28;20474;-71
2021/12/29 04:35:24;;;;;;;10.77;9.80;;;;;;;;;;4987065;28;20125;-71
2021/12/29 04:37:51;;;;;;;10.52;9.70;;;;;;;;;;4985929;28;20141;-71
2021/12/29 04:40:17;;;;;;;10.18;9.48;;;;;;;;;;4985612;28;20044;-71
2021/12/29 04:42:42;;;;;;;11.13;9.52;;;;;;;;;;4987258;28;20038;-71
2021/12/29 04:45:09;;;;;;;10.68;9.25;;;;;;;;;;4987182;28;20421;-71
2021/12/29 04:47:39;;;;;;;9.65;8.80;;;;;;;;;;4982856;28;20062;-71
2021/12/29 04:50:13;;;;;;;10.43;9.30;;;;;;;;;;4991768;28;20039;-71
2021/12/29 04:52:39;;;;;;;9.88;9.18;;;;;;;;;;4985693;28;20031;-71
2021/12/29 04:55:07;;;;;;;12.57;9.68;;;;;;;;;;4980482;28;20337;-71
2021/12/29 04:57:33;;;;;;;10.80;9.70;;;;;;;;;;4988107;28;20205;-71
2021/12/29 05:00:00;;;;;;;11.85;10.85;;;;;;;;;;4989587;28;20069;-71
2021/12/29 05:02:25;;;;;;;12.40;11.20;;;;;;;;;;4989616;28;20438;-71
2021/12/29 05:04:59;;;;;;;12.80;11.50;;;;;;;;;;4992492;28;20571;-71
2021/12/29 05:10:09;;;;;;;11.48;10.27;;;;;;;;;;4985748;28;20042;-72
2021/12/29 05:12:35;;;;;;;10.95;10.00;;;;;;;;;;4989383;28;20102;-72
2021/12/29 05:15:00;;;;;;;10.95;9.95;;;;;;;;;;4996256;28;20394;-71
2021/12/29 05:17:26;;;;;;;11.43;10.20;;;;;;;;;;4990339;28;20046;-71
2021/12/29 05:19:52;;;;;;;11.55;10.52;;;;;;;;;;4986058;28;20038;-71
2021/12/29 05:22:17;;;;;;;12.45;11.25;;;;;;;;;;4988586;28;20128;-71
2021/12/29 05:24:43;;;;;;;12.98;11.30;;;;;;;;;;4989599;28;20046;-71
2021/12/29 05:27:09;;;;;;;13.57;12.18;;;;;;;;;;4991364;28;20113;-71
2021/12/29 05:29:34;;;;;;;13.25;11.32;;;;;;;;;;4992535;28;20034;-71
2021/12/29 05:32:00;;;;;;;12.45;11.23;;;;;;;;;;4989926;28;20081;-71
2021/12/29 05:34:26;;;;;;;11.82;10.30;;;;;;;;;;4988250;28;20044;-70
2021/12/29 05:36:51;;;;;;;12.05;11.15;;;;;;;;;;4987049;28;20200;-70
2021/12/29 05:39:17;;;;;;;12.32;11.05;;;;;;;;;;4988622;28;20477;-70
2021/12/29 05:41:43;;;;;;;11.00;10.25;;;;;;;;;;4988006;28;20101;-70
2021/12/29 05:44:08;;;;;;;12.63;11.23;;;;;;;;;;4985814;28;20026;-71
2021/12/29 05:46:34;;;;;;;13.30;10.98;;;;;;;;;;4988631;28;20031;-71
2021/12/29 05:49:00;;;;;;;13.55;11.85;;;;;;;;;;4990169;28;20064;-70
2021/12/29 05:51:26;;;;;;;12.52;11.40;;;;;;;;;;4988701;28;20046;-70
2021/12/29 05:53:51;;;;;;;13.40;11.30;;;;;;;;;;4982656;28;20121;-71
2021/12/29 05:56:17;;;;;;;11.73;10.60;;;;;;;;;;4987061;28;20478;-70
2021/12/29 05:58:43;;;;;;;15.20;11.38;;;;;;;;;;4989962;28;20038;-69
2021/12/29 06:01:09;;;;;;;11.85;10.90;;;;;;;;;;4988552;28;20106;-70
2021/12/29 06:03:37;;;;;;;12.75;11.48;;;;;;;;;;4982662;28;20129;-69
2021/12/29 06:06:03;;;;;;;12.75;11.70;;;;;;;;;;4991192;28;20037;-70
2021/12/29 06:08:29;;;;;;;12.88;11.70;;;;;;;;;;4989625;28;20034;-70
2021/12/29 06:10:55;;;;;;;12.50;11.50;;;;;;;;;;4989063;28;20493;-70
2021/12/29 06:13:21;;;;;;;14.30;11.60;;;;;;;;;;4987469;28;20360;-70
2021/12/29 06:15:47;;;;;;;11.95;11.15;;;;;;;;;;4989158;28;20097;-70
2021/12/29 06:18:13;;;;;;;15.40;11.50;;;;;;;;;;4989124;28;20096;-70
2021/12/29 06:20:39;;;;;;;12.23;11.15;;;;;;;;;;4986513;28;20034;-70
2021/12/29 06:23:06;;;;;;;13.88;10.93;;;;;;;;;;5000031;28;20421;-70
2021/12/29 06:25:33;;;;;;;11.85;10.82;;;;;;;;;;4988477;28;20038;-72
2021/12/29 06:27:59;;;;;;;12.52;11.40;;;;;;;;;;4988596;28;20113;-69
2021/12/29 06:30:25;;;;;;;11.65;10.70;;;;;;;;;;4986711;28;20129;-69
2021/12/29 06:32:51;;;;;;;13.25;11.80;;;;;;;;;;4983928;28;20039;-69
2021/12/29 06:35:17;;;;;;;12.02;10.85;;;;;;;;;;4987053;28;20038;-70
2021/12/29 06:37:43;;;;;;;11.82;10.77;;;;;;;;;;4988188;28;20038;-70
2021/12/29 06:40:11;;;;;;;12.38;11.18;;;;;;;;;;4999330;28;20033;-69
2021/12/29 06:42:37;;;;;;;12.40;11.35;;;;;;;;;;4982429;28;20030;-70
2021/12/29 06:45:04;;;;;;;12.13;11.00;;;;;;;;;;4988557;28;20069;-70
2021/12/29 06:47:30;;;;;;;11.85;10.75;;;;;;;;;;4984450;28;20084;-70
2021/12/29 06:49:55;;;;;;;12.18;11.13;;;;;;;;;;4993437;28;20534;-70
2021/12/29 06:52:22;;;;;;;11.50;10.50;;;;;;;;;;4987114;28;20030;-69
2021/12/29 06:54:47;;;;;;;11.32;10.43;;;;;;;;;;4988615;28;20026;-70
2021/12/29 06:57:14;;;;;;;12.77;11.30;;;;;;;;;;4985813;28;20508;-72
2021/12/29 06:59:40;;;;;;;14.70;11.02;;;;;;;;;;4987169;28;20041;-70
2021/12/29 07:02:05;;;;;;;12.10;10.98;;;;;;;;;;4987069;28;20058;-72
2021/12/29 07:04:31;;;;;;;12.80;11.10;;;;;;;;;;4990353;28;20077;-69
2021/12/29 07:06:57;;;;;;;11.82;10.93;;;;;;;;;;4990097;28;20037;-68
2021/12/29 07:09:23;;;;;;;12.05;10.93;;;;;;;;;;4987929;28;20046;-69
2021/12/29 07:11:48;;;;;;;12.18;10.98;;;;;;;;;;4986573;28;20034;-68
2021/12/29 07:14:14;;;;;;;12.38;11.18;;;;;;;;;;4993318;28;20196;-69
2021/12/29 07:16:44;;;;;;;12.18;11.05;;;;;;;;;;4987554;28;20045;-72
2021/12/29 07:19:10;;;;;;;11.27;10.38;;;;;;;;;;4988131;28;20445;-69
2021/12/29 07:21:36;;;;;;;11.60;10.77;;;;;;;;;;4990382;28;20057;-68
2021/12/29 07:24:02;;;;;;;13.00;10.23;;;;;;;;;;4990352;28;20034;-69
2021/12/29 07:26:28;;;;;;;11.75;10.20;;;;;;;;;;4988372;28;20053;-69
2021/12/29 07:28:54;;;;;;;11.18;10.13;;;;;;;;;;4987550;28;20083;-69
2021/12/29 07:31:20;;;;;;;11.48;10.43;;;;;;;;;;4985389;28;20434;-69
2021/12/29 07:33:46;;;;;;;11.85;10.73;;;;;;;;;;4985212;28;20046;-69
2021/12/29 07:36:12;;;;;;;11.70;10.70;;;;;;;;;;4988318;28;20071;-68
2021/12/29 07:38:39;;;;;;;10.95;10.18;;;;;;;;;;4985985;28;20139;-68
2021/12/29 07:41:05;;;;;;;11.65;10.50;;;;;;;;;;4985724;28;20281;-69
2021/12/29 07:43:31;;;;;;;12.55;11.43;;;;;;;;;;4986514;28;20038;-69
2021/12/29 07:45:58;;;;;;;13.32;11.93;;;;;;;;;;4974227;28;20042;-68
2021/12/29 07:48:27;;;;;;;14.32;11.02;;;;;;;;;;4984515;28;20089;-68
2021/12/29 07:50:53;;;;;;;13.20;11.65;;;;;;;;;;4992753;28;20042;-68
2021/12/29 07:53:19;;;;;;;14.05;11.68;;;;;;;;;;4987537;28;20121;-68
2021/12/29 07:55:45;;;;;;;12.25;11.25;;;;;;;;;;4979160;28;20065;-68
2021/12/29 07:58:11;;;;;;;12.75;11.75;;;;;;;;;;4988305;28;20062;-68
2021/12/29 08:00:37;;;;;;;12.40;11.20;;;;;;;;;;4986580;28;20081;-68
2021/12/29 08:03:02;;;;;;;11.93;11.10;;;;;;;;;;4981523;28;20485;-68
2021/12/29 08:05:28;;;;;;;12.90;11.98;;;;;;;;;;4987729;28;20481;-68
2021/12/29 08:07:53;;;;;;;13.35;11.20;;;;;;;;;;4993239;28;20134;-68
2021/12/29 08:10:19;;;;;;;13.52;12.05;;;;;;;;;;4986948;28;20060;-68
2021/12/29 08:12:45;;;;;;;12.15;11.00;;;;;;;;;;4984352;28;20034;-68
2021/12/29 08:15:11;;;;;;;15.18;11.65;;;;;;;;;;4986322;28;20034;-68
2021/12/29 08:17:39;;;;;;;12.27;10.95;;;;;;;;;;4978026;28;20122;-68
2021/12/29 08:20:06;;;;;;;14.23;11.82;;;;;;;;;;4986330;28;20166;-68
2021/12/29 08:22:32;;;;;;;13.40;12.18;;;;;;;;;;4993065;28;20045;-68
2021/12/29 08:24:58;;;;;;;25.58;13.20;;;;;;;;;;4989843;28;20026;-68
2021/12/29 08:27:24;;;;;;;36.25;12.73;;;;;;;;;;4989020;28;20037;-67
2021/12/29 08:29:50;;;;;;;54.20;15.73;;;;;;;;;;4985648;28;20038;-67
2021/12/29 08:32:15;;;;;;;17.50;13.40;;;;;;;;;;4988335;28;20340;-68
2021/12/29 08:34:41;;;;;;;15.45;13.05;;;;;;;;;;4985106;28;20131;-68
2021/12/29 08:37:07;;;;;;;15.32;13.75;;;;;;;;;;4990164;28;20038;-68
2021/12/29 08:39:33;;;;;;;14.45;12.95;;;;;;;;;;4990111;28;20424;-68
2021/12/29 08:41:58;;;;;;;14.02;12.82;;;;;;;;;;4994253;28;20081;-68
2021/12/29 08:44:24;;;;;;;13.80;12.68;;;;;;;;;;4998789;28;20440;-68
2021/12/29 08:46:49;;;;;;;14.98;13.35;;;;;;;;;;4990861;28;20042;-68
2021/12/29 08:49:15;;;;;;;12.85;11.63;;;;;;;;;;4989662;28;20100;-67
2021/12/29 08:51:41;;;;;;;12.77;11.23;;;;;;;;;;4988011;28;20045;-67
2021/12/29 08:54:08;;;;;;;12.77;11.70;;;;;;;;;;4989663;28;20062;-68
2021/12/29 08:56:33;;;;;;;12.25;11.43;;;;;;;;;;4988776;28;20044;-68
2021/12/29 08:58:59;;;;;;;11.82;10.93;;;;;;;;;;4990912;28;20436;-68
2021/12/29 09:01:26;;;;;;;11.30;10.38;;;;;;;;;;4989214;28;20030;-68
2021/12/29 09:03:53;;;;;;;12.07;10.88;;;;;;;;;;4984140;28;20042;-68
2021/12/29 09:06:19;;;;;;;12.75;10.85;;;;;;;;;;4982767;28;20371;-68
2021/12/29 09:08:45;;;;;;;11.48;10.45;;;;;;;;;;4996488;28;20038;-68
2021/12/29 09:11:12;;;;;;;10.95;10.10;;;;;;;;;;4992674;28;20505;-68
2021/12/29 09:13:38;;;;;;;11.48;10.70;;;;;;;;;;4991767;28;20042;-68
2021/12/29 09:16:05;;;;;;;12.68;11.00;;;;;;;;;;4986826;28;20134;-68
2021/12/29 09:18:31;;;;;;;11.57;10.43;;;;;;;;;;4988625;28;20100;-68
2021/12/29 09:21:05;;;;;;;12.07;11.23;;;;;;;;;;4990691;28;20034;-68
2021/12/29 09:23:31;;;;;;;11.95;10.98;;;;;;;;;;4987786;28;20165;-68
2021/12/29 09:25:57;;;;;;;12.40;11.20;;;;;;;;;;4982389;28;20536;-68
2021/12/29 09:28:23;;;;;;;11.25;10.55;;;;;;;;;;4997408;28;20038;-68
2021/12/29 09:30:50;;;;;;;11.30;10.50;;;;;;;;;;4988400;28;20056;-68
2021/12/29 09:33:19;;;;;;;12.57;11.27;;;;;;;;;;4989579;28;20046;-68
2021/12/29 09:35:49;;;;;;;11.25;10.45;;;;;;;;;;4984474;28;20038;-68
2021/12/29 09:38:19;;;;;;;11.98;10.98;;;;;;;;;;4980541;28;20033;-68
2021/12/29 09:40:47;;;;;;;11.00;10.23;;;;;;;;;;4984062;28;20611;-68
2021/12/29 09:43:13;;;;;;;12.18;10.90;;;;;;;;;;4983425;28;20084;-69
2021/12/29 09:45:40;;;;;;;12.40;11.18;;;;;;;;;;4980946;28;20030;-69
2021/12/29 09:48:05;;;;;;;11.82;10.82;;;;;;;;;;4980107;28;20042;-69
2021/12/29 09:50:33;;;;;;;12.57;11.15;;;;;;;;;;4995197;28;20257;-69
2021/12/29 09:53:00;;;;;;;11.80;10.60;;;;;;;;;;4989414;28;20049;-69
2021/12/29 09:55:26;;;;;;;10.80;9.98;;;;;;;;;;4986919;28;20081;-70
2021/12/29 09:57:55;;;;;;;11.18;9.98;;;;;;;;;;4995096;28;20041;-70
2021/12/29 10:00:24;;;;;;;11.48;10.52;;;;;;;;;;4994292;28;20096;-70
2021/12/29 10:02:50;;;;;;;11.83;10.67;;;;;;;;;;4985143;28;20033;-70
2021/12/29 10:05:15;;;;;;;11.02;10.13;;;;;;;;;;4982564;28;20034;-69
2021/12/29 10:07:41;;;;;;;11.43;10.43;;;;;;;;;;4998965;28;20057;-70
2021/12/29 10:10:19;;;;;;;11.05;10.25;;;;;;;;;;4986344;28;20524;-69
2021/12/29 10:12:45;;;;;;;11.40;10.20;;;;;;;;;;4990903;28;20041;-69
2021/12/29 10:15:11;;;;;;;11.60;10.55;;;;;;;;;;4988027;28;20038;-69
2021/12/29 10:17:37;;;;;;;11.70;10.80;;;;;;;;;;4986574;28;20489;-70
2021/12/29 10:20:10;;;;;;;12.27;11.25;;;;;;;;;;4984779;28;20049;-70
2021/12/29 10:22:37;;;;;;;11.70;10.80;;;;;;;;;;4984316;28;20033;-70
2021/12/29 10:25:07;;;;;;;12.38;11.15;;;;;;;;;;4986582;28;20167;-70
2021/12/29 10:27:34;;;;;;;11.88;10.98;;;;;;;;;;4984319;28;20038;-70
2021/12/29 10:30:02;;;;;;;11.85;10.82;;;;;;;;;;4991037;28;20037;-73
2021/12/29 10:32:28;;;;;;;11.38;10.48;;;;;;;;;;4985952;28;20092;-70
2021/12/29 10:34:54;;;;;;;10.38;9.65;;;;;;;;;;4986025;28;20042;-69
2021/12/29 10:37:23;;;;;;;11.85;10.85;;;;;;;;;;4983159;28;20406;-70
2021/12/29 10:39:52;;;;;;;12.18;11.00;;;;;;;;;;4985913;28;20088;-70
2021/12/29 10:42:21;;;;;;;12.02;10.65;;;;;;;;;;4987121;28;20386;-70
2021/12/29 10:44:50;;;;;;;11.45;10.50;;;;;;;;;;4987514;28;20034;-70
2021/12/29 10:47:20;;;;;;;12.25;11.00;;;;;;;;;;4990081;28;20401;-70
2021/12/29 10:49:59;;;;;;;12.48;11.27;;;;;;;;;;4982005;28;20274;-70
2021/12/29 10:52:33;;;;;;;;;;;;;;;;;;4985196;28;20034;-70
2021/12/29 10:55:01;;;;;;;12.60;10.38;;;;;;;;;;4984453;28;20008;-70
2021/12/29 10:57:27;;;;;;;11.10;10.13;;;;;;;;;;4990559;28;20038;-70
2021/12/29 10:59:58;;;;;;;10.35;9.50;;;;;;;;;;4980769;28;20084;-70
2021/12/29 11:02:29;;;;;;;10.77;9.85;;;;;;;;;;4986500;28;20809;-69
2021/12/29 11:04:57;;;;;;;11.77;10.77;;;;;;;;;;4986675;28;20042;-70
2021/12/29 11:07:27;;;;;;;11.38;10.57;;;;;;;;;;4984292;28;20039;-70
2021/12/29 11:09:53;;;;;;;10.40;9.70;;;;;;;;;;4987551;28;20038;-70
2021/12/29 11:12:20;;;;;;;10.07;9.40;;;;;;;;;;4982079;28;20045;-69
2021/12/29 11:14:52;;;;;;;10.65;9.95;;;;;;;;;;4987237;28;20121;-70
2021/12/29 11:17:24;;;;;;;11.00;10.13;;;;;;;;;;4981685;28;20027;-70
2021/12/29 11:19:56;;;;;;;10.98;10.20;;;;;;;;;;4986983;28;20363;-69
2021/12/29 11:22:25;;;;;;;10.90;10.07;;;;;;;;;;4979062;28;20034;-70
2021/12/29 11:25:03;;;;;;;10.75;10.00;;;;;;;;;;4988952;28;20034;-70
2021/12/29 11:27:32;;;;;;;10.13;9.52;;;;;;;;;;4987141;28;20597;-70
2021/12/29 11:30:00;;;;;;;11.52;10.32;;;;;;;;;;4982473;28;20140;-70
2021/12/29 11:32:37;;;;;;;10.82;9.82;;;;;;;;;;4985118;28;20080;-70
2021/12/29 11:35:16;;;;;;;11.80;10.60;;;;;;;;;;4979596;28;20092;-70
2021/12/29 11:37:44;;;;;;;11.35;10.35;;;;;;;;;;4978892;28;20026;-70
2021/12/29 11:40:12;;;;;;;10.70;9.93;;;;;;;;;;4976912;28;20053;-69
2021/12/29 11:42:38;;;;;;;11.52;10.57;;;;;;;;;;4981390;28;20034;-70
2021/12/29 11:45:05;;;;;;;11.00;10.30;;;;;;;;;;4982431;28;20121;-69
2021/12/29 11:47:31;;;;;;;10.95;10.15;;;;;;;;;;4981429;28;20090;-70
2021/12/29 11:49:56;;;;;;;11.48;10.57;;;;;;;;;;4981656;28;20193;-70
2021/12/29 11:52:30;;;;;;;11.40;10.45;;;;;;;;;;4981076;28;20048;-70
2021/12/29 11:55:12;;;;;;;11.82;10.82;;;;;;;;;;4984211;28;20459;-70
2021/12/29 11:57:39;;;;;;;11.38;10.50;;;;;;;;;;4982810;28;20042;-70
2021/12/29 12:00:18;;;;;;;11.88;10.77;;;;;;;;;;4980482;28;20061;-70
2021/12/29 12:02:53;;;;;;;11.75;10.73;;;;;;;;;;4982184;28;20046;-72
2021/12/29 12:05:33;;;;;;;10.02;9.05;;;;;;;;;;4986662;28;20503;-71
2021/12/29 12:08:09;;;;;;;11.00;10.20;;;;;;;;;;4994038;28;20030;-69
2021/12/29 12:10:37;;;;;;;10.80;9.95;;;;;;;;;;4997220;28;20256;-71
2021/12/29 12:13:07;;;;;;;13.45;10.90;;;;;;;;;;4989913;28;20036;-72
2021/12/29 12:15:37;;;;;;;10.88;9.73;;;;;;;;;;4984968;28;20355;-71
2021/12/29 12:18:08;;;;;;;11.52;10.20;;;;;;;;;;4980411;28;20023;-72
2021/12/29 12:20:50;;;;;;;11.70;10.82;;;;;;;;;;4983279;28;20038;-69
2021/12/29 12:23:25;;;;;;;11.32;10.48;;;;;;;;;;4985388;28;20149;-70
2021/12/29 12:25:51;;;;;;;11.05;10.13;;;;;;;;;;4981483;28;20121;-70
2021/12/29 12:28:21;;;;;;;11.43;10.52;;;;;;;;;;4987254;28;20532;-70
2021/12/29 12:30:51;;;;;;;12.40;10.73;;;;;;;;;;4981837;28;20121;-70
2021/12/29 12:33:23;;;;;;;11.63;10.48;;;;;;;;;;4986300;28;20034;-70
2021/12/29 12:35:51;;;;;;;12.18;11.18;;;;;;;;;;4986235;28;20034;-70
2021/12/29 12:38:37;;;;;;;14.63;11.13;;;;;;;;;;4986148;28;20052;-70
2021/12/29 12:41:14;;;;;;;12.43;10.10;;;;;;;;;;4992671;28;20079;-70
2021/12/29 12:43:57;;;;;;;12.65;10.95;;;;;;;;;;4987713;28;20121;-70
2021/12/29 12:46:47;;;;;;;11.48;10.30;;;;;;;;;;4988094;28;20034;-70
2021/12/29 12:49:25;;;;;;;12.18;11.05;;;;;;;;;;4985489;28;20035;-70
2021/12/29 12:52:00;;;;;;;13.70;10.85;;;;;;;;;;4992389;28;20143;-71
2021/12/29 12:54:29;;;;;;;12.30;11.00;;;;;;;;;;4982175;28;20596;-71
2021/12/29 12:56:56;;;;;;;12.00;10.90;;;;;;;;;;4981438;28;20038;-71
2021/12/29 12:59:33;;;;;;;12.55;11.23;;;;;;;;;;4989083;28;20046;-70
2021/12/29 13:02:12;;;;;;;11.95;10.75;;;;;;;;;;4986958;28;20033;-71
2021/12/29 13:05:02;;;;;;;13.27;11.20;;;;;;;;;;4985230;28;20037;-71
2021/12/29 13:07:29;;;;;;;13.05;10.10;;;;;;;;;;4970535;28;20069;-70
2021/12/29 13:09:54;;;;;;;13.95;10.88;;;;;;;;;;4987037;28;20120;-71
2021/12/29 13:12:29;;;;;;;11.55;10.45;;;;;;;;;;4985218;28;20125;-71
2021/12/29 13:15:08;;;;;;;11.52;10.45;;;;;;;;;;4984862;28;20052;-70
2021/12/29 13:17:34;;;;;;;11.85;10.82;;;;;;;;;;4983843;28;20042;-70
2021/12/29 13:20:00;;;;;;;12.15;10.75;;;;;;;;;;4985009;28;20049;-70
2021/12/29 13:22:29;;;;;;;12.45;10.43;;;;;;;;;;4985320;28;20046;-71
2021/12/29 13:25:13;;;;;;;;;;;;;;;;;;4982251;28;20034;-71
2021/12/29 13:27:42;;;;;;;12.10;10.90;;;;;;;;;;4993736;28;20026;-71
2021/12/29 13:30:12;;;;;;;11.93;10.88;;;;;;;;;;4984190;28;20038;-72
2021/12/29 13:32:49;;;;;;;11.48;10.57;;;;;;;;;;4984322;28;20596;-71
2021/12/29 13:35:15;;;;;;;14.90;10.82;;;;;;;;;;4984781;28;20030;-72
2021/12/29 13:37:41;;;;;;;11.75;10.65;;;;;;;;;;4991317;28;20034;-70
2021/12/29 13:40:09;;;;;;;12.85;11.32;;;;;;;;;;4985686;28;20501;-70
2021/12/29 13:42:40;;;;;;;11.57;10.48;;;;;;;;;;4982301;28;20038;-70
2021/12/29 13:45:06;;;;;;;11.82;10.75;;;;;;;;;;4988187;28;20041;-70
2021/12/29 13:47:32;;;;;;;11.90;10.70;;;;;;;;;;4977490;28;20064;-70
2021/12/29 13:50:11;;;;;;;11.25;10.25;;;;;;;;;;4978539;28;20506;-70
2021/12/29 13:52:36;;;;;;;11.70;9.98;;;;;;;;;;4979619;28;20041;-70
2021/12/29 13:55:03;;;;;;;11.32;10.43;;;;;;;;;;4997471;28;20034;-71
2021/12/29 13:57:29;;;;;;;11.25;10.35;;;;;;;;;;4983515;28;20042;-71
2021/12/29 13:59:57;;;;;;;11.30;10.50;;;;;;;;;;4984974;28;20410;-71
2021/12/29 14:02:22;;;;;;;10.63;9.93;;;;;;;;;;4977563;28;21498;-70
2021/12/29 14:04:50;;;;;;;11.63;10.52;;;;;;;;;;4982070;28;20038;-70
2021/12/29 14:07:16;;;;;;;10.90;10.10;;;;;;;;;;4986071;28;20521;-70
2021/12/29 14:09:43;;;;;;;11.20;10.38;;;;;;;;;;4983946;28;20046;-70
2021/12/29 14:12:12;;;;;;;11.60;10.70;;;;;;;;;;4986054;28;20038;-71
2021/12/29 14:14:40;;;;;;;10.43;9.68;;;;;;;;;;4998138;28;20034;-71
2021/12/29 14:17:13;;;;;;;10.35;9.32;;;;;;;;;;4987685;28;20137;-70
2021/12/29 14:19:44;;;;;;;10.57;9.63;;;;;;;;;;4982583;28;20046;-70
2021/12/29 14:22:23;;;;;;;10.82;10.02;;;;;;;;;;4987299;28;20034;-70
2021/12/29 14:24:48;;;;;;;10.95;10.15;;;;;;;;;;4983972;28;20034;-69
2021/12/29 14:27:22;;;;;;;10.95;9.80;;;;;;;;;;4982320;28;20045;-69
2021/12/29 14:29:47;;;;;;;11.13;10.27;;;;;;;;;;4982554;28;20030;-70
2021/12/29 14:32:13;;;;;;;11.07;10.07;;;;;;;;;;4985582;28;20041;-70
2021/12/29 14:34:52;;;;;;;11.00;10.10;;;;;;;;;;4987845;28;20097;-70
2021/12/29 14:37:19;;;;;;;11.88;10.77;;;;;;;;;;4986810;28;20498;-69
2021/12/29 14:39:45;;;;;;;10.55;9.43;;;;;;;;;;4987305;28;20048;-70